createdAt,value
2023-04-27T00:00:15.142Z,9.10
2023-04-27T00:02:44.655Z,9.11
2023-04-27T00:05:13.314Z,9.09
2023-04-27T00:07:44.559Z,9.10
2023-04-27T00:10:16.008Z,9.07
2023-04-27T00:12:48.974Z,9.04
2023-04-27T00:15:19.308Z,9.02
2023-04-27T00:17:50.597Z,9.00
2023-04-27T00:20:20.654Z,9.00
2023-04-27T00:22:49.112Z,8.99
2023-04-27T00:25:19.518Z,8.97
2023-04-27T00:27:49.010Z,8.95
2023-04-27T00:30:17.061Z,8.90
2023-04-27T00:32:45.114Z,8.88
2023-04-27T00:35:14.789Z,8.87
2023-04-27T00:37:44.761Z,8.80
2023-04-27T00:40:14.905Z,8.76
2023-04-27T00:42:44.606Z,8.71
2023-04-27T00:45:20.425Z,8.66
2023-04-27T00:47:49.305Z,8.63
2023-04-27T00:50:21.023Z,8.56
2023-04-27T00:52:49.216Z,8.53
2023-04-27T00:55:20.559Z,8.49
2023-04-27T00:57:50.689Z,8.42
2023-04-27T01:00:22.965Z,8.39
2023-04-27T01:02:53.248Z,8.36
2023-04-27T01:05:22.843Z,8.34
2023-04-27T01:07:50.962Z,8.31
2023-04-27T01:10:19.230Z,8.30
2023-04-27T01:12:49.784Z,8.27
2023-04-27T01:15:17.993Z,8.21
2023-04-27T01:17:50.702Z,8.13
2023-04-27T01:20:21.350Z,8.08
2023-04-27T01:22:49.596Z,8.04
2023-04-27T01:25:20.213Z,8.02
2023-04-27T01:27:51.511Z,7.94
2023-04-27T01:30:22.473Z,7.91
2023-04-27T01:32:56.328Z,7.85
2023-04-27T01:35:25.626Z,7.83
2023-04-27T01:37:57.989Z,7.85
2023-04-27T01:40:27.629Z,7.90
2023-04-27T01:42:58.191Z,7.92
2023-04-27T01:45:26.207Z,7.93
2023-04-27T01:47:56.022Z,7.93
2023-04-27T01:50:26.211Z,7.92
2023-04-27T01:53:00.364Z,7.93
2023-04-27T01:55:32.091Z,7.89
2023-04-27T01:58:00.319Z,7.86
2023-04-27T02:00:28.683Z,7.86
2023-04-27T02:02:57.533Z,7.84
2023-04-27T02:05:25.678Z,7.83
2023-04-27T02:07:54.837Z,7.88
2023-04-27T02:10:24.293Z,7.84
2023-04-27T02:12:58.920Z,7.78
2023-04-27T02:15:27.972Z,7.79
2023-04-27T02:17:57.353Z,7.80
2023-04-27T02:20:28.150Z,7.80
2023-04-27T02:22:57.136Z,7.81
2023-04-27T02:25:27.870Z,7.78
2023-04-27T02:27:58.051Z,7.78
2023-04-27T02:30:26.967Z,7.79
2023-04-27T02:32:59.725Z,7.81
2023-04-27T02:35:28.265Z,7.82
2023-04-27T02:37:57.180Z,7.83
2023-04-27T02:40:27.899Z,7.84
2023-04-27T02:42:57.667Z,7.81
2023-04-27T02:45:28.641Z,7.83
2023-04-27T02:47:57.108Z,7.81
2023-04-27T02:50:27.470Z,7.83
2023-04-27T02:52:55.419Z,7.82
2023-04-27T02:55:30.260Z,7.83
2023-04-27T02:57:58.305Z,7.82
2023-04-27T03:00:28.100Z,7.81
2023-04-27T03:02:58.783Z,7.78
2023-04-27T03:05:31.973Z,7.75
2023-04-27T03:08:02.901Z,7.68
2023-04-27T03:10:31.587Z,7.66
2023-04-27T03:13:02.889Z,7.60
2023-04-27T03:15:35.988Z,7.52
2023-04-27T03:18:04.164Z,7.48
2023-04-27T03:20:32.320Z,7.44
2023-04-27T03:23:00.179Z,7.43
2023-04-27T03:25:28.646Z,7.37
2023-04-27T03:27:56.706Z,7.33
2023-04-27T03:30:25.485Z,7.30
2023-04-27T03:32:56.416Z,7.29
2023-04-27T03:35:27.551Z,7.26
2023-04-27T03:37:59.866Z,7.26
2023-04-27T03:40:29.426Z,7.27
2023-04-27T03:42:59.100Z,7.26
2023-04-27T03:45:27.826Z,7.27
2023-04-27T03:47:57.392Z,7.31
2023-04-27T03:50:28.908Z,7.27
2023-04-27T03:53:01.819Z,7.26
2023-04-27T03:55:31.508Z,7.22
2023-04-27T03:58:00.671Z,7.14
2023-04-27T04:00:31.318Z,7.13
2023-04-27T04:03:01.687Z,7.09
2023-04-27T04:05:30.667Z,7.07
2023-04-27T04:07:59.845Z,7.04
2023-04-27T04:10:31.732Z,7.02
2023-04-27T04:13:01.344Z,7.01
2023-04-27T04:15:29.466Z,6.97
2023-04-27T04:18:00.210Z,6.99
2023-04-27T04:20:28.395Z,7.05
2023-04-27T04:22:56.295Z,7.09
2023-04-27T04:25:26.133Z,7.14
2023-04-27T04:27:56.732Z,7.19
2023-04-27T04:30:25.456Z,7.21
2023-04-27T04:32:55.194Z,7.26
2023-04-27T04:35:24.635Z,7.27
2023-04-27T04:37:57.758Z,7.29
2023-04-27T04:40:26.088Z,7.29
2023-04-27T04:42:54.282Z,7.28
2023-04-27T04:45:27.140Z,7.21
2023-04-27T04:47:57.026Z,7.20
2023-04-27T04:50:28.603Z,7.19
2023-04-27T04:52:58.360Z,7.19
2023-04-27T04:55:29.005Z,7.16
2023-04-27T04:57:57.580Z,7.14
2023-04-27T05:00:25.588Z,7.12
2023-04-27T05:02:54.043Z,7.09
2023-04-27T05:05:23.551Z,7.10
2023-04-27T05:07:53.300Z,7.10
2023-04-27T05:10:23.673Z,7.11
2023-04-27T05:12:51.926Z,7.13
2023-04-27T05:15:22.274Z,7.11
2023-04-27T05:17:54.083Z,7.14
2023-04-27T05:20:23.418Z,7.20
2023-04-27T05:22:55.031Z,7.24
2023-04-27T05:25:22.970Z,7.25
2023-04-27T05:27:51.058Z,7.27
2023-04-27T05:30:22.044Z,7.32
2023-04-27T05:32:50.220Z,7.36
2023-04-27T05:35:19.225Z,7.41
2023-04-27T05:37:49.772Z,7.46
2023-04-27T05:40:20.380Z,7.48
2023-04-27T05:42:49.472Z,7.53
2023-04-27T05:45:20.245Z,7.58
2023-04-27T05:47:48.888Z,7.65
2023-04-27T05:50:21.682Z,7.72
2023-04-27T05:52:49.977Z,7.76
2023-04-27T05:55:19.473Z,7.83
2023-04-27T05:58:04.595Z,7.88
2023-04-27T06:00:37.108Z,7.96
2023-04-27T06:03:09.960Z,8.10
2023-04-27T06:05:39.741Z,8.20
2023-04-27T06:08:07.921Z,8.26
2023-04-27T06:10:40.834Z,8.35
2023-04-27T06:13:09.524Z,8.45
2023-04-27T06:15:42.251Z,8.54
2023-04-27T06:18:14.898Z,8.58
2023-04-27T06:20:46.964Z,8.64
2023-04-27T06:23:17.521Z,8.71
2023-04-27T06:25:51.531Z,8.78
2023-04-27T06:28:19.796Z,8.84
2023-04-27T06:30:48.080Z,8.90
2023-04-27T06:33:16.506Z,8.97
2023-04-27T06:35:51.727Z,9.06
2023-04-27T06:38:21.256Z,9.11
2023-04-27T06:40:53.642Z,9.17
2023-04-27T06:43:31.662Z,9.22
2023-04-27T06:45:59.636Z,9.28
2023-04-27T06:48:28.176Z,9.35
2023-04-27T06:50:57.779Z,9.47
2023-04-27T06:53:29.557Z,9.54
2023-04-27T06:56:05.950Z,9.61
2023-04-27T06:58:36.344Z,9.65
2023-04-27T07:01:08.645Z,9.70
2023-04-27T07:03:43.743Z,9.77
2023-04-27T07:06:15.525Z,9.85
2023-04-27T07:08:44.232Z,9.93
2023-04-27T07:11:16.295Z,10.04
2023-04-27T07:13:44.832Z,10.10
2023-04-27T07:16:14.119Z,10.15
2023-04-27T07:18:43.584Z,10.21
2023-04-27T07:21:29.341Z,10.31
2023-04-27T07:23:59.458Z,10.38
2023-04-27T07:26:31.872Z,10.43
2023-04-27T07:29:11.200Z,10.51
2023-04-27T07:31:52.225Z,10.57
2023-04-27T07:34:23.722Z,10.61
2023-04-27T07:36:56.282Z,10.66
2023-04-27T07:39:24.600Z,10.71
2023-04-27T07:41:55.086Z,10.77
2023-04-27T07:44:23.172Z,10.81
2023-04-27T07:46:54.118Z,10.91
2023-04-27T07:49:22.481Z,11.03
2023-04-27T07:51:50.532Z,11.10
2023-04-27T07:54:20.951Z,11.17
2023-04-27T07:56:49.656Z,11.26
2023-04-27T07:59:21.750Z,11.37
2023-04-27T08:01:52.153Z,11.46
2023-04-27T08:04:20.506Z,11.57
2023-04-27T08:06:49.288Z,11.67
2023-04-27T08:09:17.958Z,11.75
2023-04-27T08:11:48.846Z,11.80
2023-04-27T08:14:19.182Z,11.92
2023-04-27T08:16:49.368Z,12.07
2023-04-27T08:19:17.310Z,12.17
2023-04-27T08:21:47.192Z,12.18
2023-04-27T08:24:15.402Z,12.20
2023-04-27T08:26:43.425Z,12.29
2023-04-27T08:29:24.209Z,12.39
2023-04-27T08:31:57.213Z,12.46
2023-04-27T08:34:28.324Z,12.56
2023-04-27T08:36:57.091Z,12.63
2023-04-27T08:39:25.597Z,12.72
2023-04-27T08:41:54.039Z,12.80
2023-04-27T08:44:23.370Z,12.90
2023-04-27T08:46:53.224Z,12.98
2023-04-27T08:49:22.648Z,13.04
2023-04-27T08:51:52.032Z,13.15
2023-04-27T08:54:20.971Z,13.29
2023-04-27T08:56:49.002Z,13.43
2023-04-27T08:59:18.137Z,13.48
2023-04-27T09:01:49.026Z,13.59
2023-04-27T09:04:19.644Z,13.73
2023-04-27T09:06:50.415Z,13.80
2023-04-27T09:09:25.381Z,13.90
2023-04-27T09:11:53.943Z,13.88
2023-04-27T09:14:23.001Z,13.87
2023-04-27T09:16:59.279Z,13.91
2023-04-27T09:19:28.782Z,14.00
2023-04-27T09:22:09.484Z,14.16
2023-04-27T09:24:37.667Z,14.27
2023-04-27T09:27:08.736Z,14.31
2023-04-27T09:29:37.862Z,14.39
2023-04-27T09:32:17.446Z,14.44
2023-04-27T09:34:46.436Z,14.49
2023-04-27T09:37:16.520Z,14.46
2023-04-27T09:39:45.085Z,14.48
2023-04-27T09:42:14.032Z,14.53
2023-04-27T09:44:42.150Z,14.56
2023-04-27T09:47:12.044Z,14.65
2023-04-27T09:49:41.397Z,14.73
2023-04-27T09:52:09.496Z,14.79
2023-04-27T09:54:39.923Z,14.91
2023-04-27T09:57:20.239Z,14.97
2023-04-27T10:00:08.055Z,15.05
2023-04-27T10:02:53.164Z,15.12
2023-04-27T10:05:43.965Z,15.19
2023-04-27T10:08:14.389Z,15.18
2023-04-27T10:10:50.013Z,15.22
2023-04-27T10:13:25.243Z,15.27
2023-04-27T10:15:53.772Z,15.33
2023-04-27T10:18:30.564Z,15.40
2023-04-27T10:21:10.927Z,15.40
2023-04-27T10:23:51.442Z,15.49
2023-04-27T10:26:28.704Z,15.52
2023-04-27T10:29:05.715Z,15.63
2023-04-27T10:31:35.166Z,15.55
2023-04-27T10:34:08.494Z,15.60
2023-04-27T10:36:41.103Z,15.66
2023-04-27T10:39:17.657Z,15.86
2023-04-27T10:41:54.760Z,16.02
2023-04-27T10:44:29.009Z,15.96
2023-04-27T10:47:01.410Z,16.11
2023-04-27T10:49:31.178Z,16.30
2023-04-27T10:52:01.822Z,16.34
2023-04-27T10:54:33.022Z,16.45
2023-04-27T10:57:10.877Z,16.48
2023-04-27T10:59:51.543Z,16.62
2023-04-27T11:02:29.449Z,16.65
2023-04-27T11:04:58.563Z,16.75
2023-04-27T11:07:30.673Z,16.83
2023-04-27T11:09:58.674Z,16.87
2023-04-27T11:12:28.746Z,16.98
2023-04-27T11:14:59.219Z,17.17
2023-04-27T11:17:31.157Z,17.20
2023-04-27T11:19:59.164Z,17.27
2023-04-27T11:22:29.168Z,17.38
2023-04-27T11:24:58.509Z,17.38
2023-04-27T11:27:39.947Z,17.43
2023-04-27T11:30:24.271Z,17.52
2023-04-27T11:32:53.861Z,17.49
2023-04-27T11:35:33.062Z,17.57
2023-04-27T11:38:01.189Z,17.57
2023-04-27T11:40:32.287Z,17.71
2023-04-27T11:43:04.312Z,17.92
2023-04-27T11:45:32.700Z,18.04
2023-04-27T11:48:03.764Z,18.15
2023-04-27T11:50:31.896Z,18.28
2023-04-27T11:53:02.173Z,18.22
2023-04-27T11:55:31.496Z,18.28
2023-04-27T11:58:03.408Z,18.33
2023-04-27T12:00:33.835Z,18.50
2023-04-27T12:03:04.981Z,18.60
2023-04-27T12:05:34.573Z,18.55
2023-04-27T12:08:03.011Z,18.64
2023-04-27T12:10:34.573Z,18.67
2023-04-27T12:13:11.856Z,18.88
2023-04-27T12:15:40.363Z,18.92
2023-04-27T12:18:08.791Z,19.01
2023-04-27T12:20:37.147Z,19.00
2023-04-27T12:23:07.351Z,19.14
2023-04-27T12:25:36.000Z,19.26
2023-04-27T12:28:08.160Z,19.36
2023-04-27T12:30:37.559Z,19.53
2023-04-27T12:33:11.330Z,19.44
2023-04-27T12:35:39.453Z,19.59
2023-04-27T12:38:07.758Z,19.72
2023-04-27T12:40:35.878Z,19.82
2023-04-27T12:43:10.070Z,19.55
2023-04-27T12:45:38.425Z,19.68
2023-04-27T12:48:10.059Z,19.79
2023-04-27T12:50:39.034Z,19.84
2023-04-27T12:53:11.509Z,19.90
2023-04-27T12:55:51.331Z,20.01
2023-04-27T12:58:36.175Z,20.12
2023-04-27T13:01:14.724Z,20.13
2023-04-27T13:03:48.552Z,20.32
2023-04-27T13:06:19.310Z,20.41
2023-04-27T13:08:47.637Z,20.41
2023-04-27T13:11:19.008Z,20.36
2023-04-27T13:13:48.850Z,20.55
2023-04-27T13:16:21.448Z,20.46
2023-04-27T13:18:51.971Z,20.53
2023-04-27T13:21:20.574Z,20.72
2023-04-27T13:23:54.772Z,20.86
2023-04-27T13:26:24.520Z,20.91
2023-04-27T13:28:54.488Z,21.04
2023-04-27T13:31:25.723Z,21.19
2023-04-27T13:33:58.278Z,21.28
2023-04-27T13:36:28.775Z,21.41
2023-04-27T13:39:02.287Z,21.55
2023-04-27T13:41:35.196Z,21.57
2023-04-27T13:44:10.935Z,21.72
2023-04-27T13:46:39.838Z,21.76
2023-04-27T13:49:11.053Z,21.76
2023-04-27T13:51:40.526Z,21.86
2023-04-27T13:54:12.849Z,22.09
2023-04-27T13:56:41.382Z,22.27
2023-04-27T13:59:14.164Z,22.28
2023-04-27T14:01:48.044Z,22.27
2023-04-27T14:04:18.020Z,22.45
2023-04-27T14:06:48.830Z,22.65
2023-04-27T14:09:21.885Z,22.69
2023-04-27T14:11:56.572Z,22.49
2023-04-27T14:14:26.756Z,22.35
2023-04-27T14:16:54.688Z,22.21
2023-04-27T14:19:23.350Z,22.55
2023-04-27T14:21:52.560Z,22.94
2023-04-27T14:24:23.082Z,23.17
2023-04-27T14:26:53.894Z,23.60
2023-04-27T14:29:27.119Z,23.69
2023-04-27T14:32:01.820Z,23.67
2023-04-27T14:34:30.084Z,23.80
2023-04-27T14:37:01.539Z,23.99
2023-04-27T14:39:33.183Z,24.27
2023-04-27T14:42:13.383Z,24.40
2023-04-27T14:44:44.077Z,24.12
2023-04-27T14:47:15.765Z,24.15
2023-04-27T14:49:44.110Z,24.39
2023-04-27T14:52:12.355Z,24.71
2023-04-27T14:54:45.694Z,25.06
2023-04-27T14:57:15.879Z,24.61
2023-04-27T14:59:50.840Z,24.26
2023-04-27T15:02:28.206Z,23.66
2023-04-27T15:05:03.392Z,23.83
2023-04-27T15:07:36.278Z,24.05
2023-04-27T15:10:08.609Z,23.99
2023-04-27T15:12:37.018Z,24.23
2023-04-27T15:15:13.437Z,24.17
2023-04-27T15:17:45.555Z,24.39
2023-04-27T15:20:16.339Z,24.67
2023-04-27T15:22:45.524Z,25.22
2023-04-27T15:25:17.484Z,25.70
2023-04-27T15:27:49.639Z,25.34
2023-04-27T15:30:23.929Z,25.68
2023-04-27T15:33:06.025Z,25.87
2023-04-27T15:35:44.026Z,26.21
2023-04-27T15:38:18.420Z,26.42
2023-04-27T15:40:48.228Z,26.27
2023-04-27T15:43:21.695Z,26.51
2023-04-27T15:45:57.101Z,26.32
2023-04-27T15:48:34.086Z,25.77
2023-04-27T15:51:10.757Z,25.53
2023-04-27T15:53:42.612Z,25.83
2023-04-27T15:56:10.801Z,26.10
2023-04-27T15:58:43.734Z,26.32
2023-04-27T16:01:19.380Z,26.34
2023-04-27T16:03:51.931Z,26.32
2023-04-27T16:06:23.863Z,26.30
2023-04-27T16:08:53.387Z,27.09
2023-04-27T16:11:24.739Z,27.55
2023-04-27T16:13:55.535Z,27.72
2023-04-27T16:16:28.955Z,27.87
2023-04-27T16:19:00.897Z,28.53
2023-04-27T16:21:31.106Z,28.65
2023-04-27T16:24:00.257Z,28.18
2023-04-27T16:26:31.729Z,27.61
2023-04-27T16:29:03.383Z,27.38
2023-04-27T16:31:42.256Z,27.82
2023-04-27T16:34:12.249Z,28.28
2023-04-27T16:36:41.294Z,29.34
2023-04-27T16:39:10.913Z,29.01
2023-04-27T16:41:45.223Z,28.40
2023-04-27T16:44:16.700Z,27.67
2023-04-27T16:46:51.213Z,26.91
2023-04-27T16:49:22.859Z,26.38
2023-04-27T16:51:56.427Z,26.17
2023-04-27T16:54:25.739Z,26.15
2023-04-27T16:56:55.492Z,25.87
2023-04-27T16:59:24.079Z,25.33
2023-04-27T17:01:55.213Z,24.44
2023-04-27T17:04:23.503Z,24.24
2023-04-27T17:06:55.779Z,23.98
2023-04-27T17:09:32.992Z,23.14
2023-04-27T17:12:03.824Z,23.16
2023-04-27T17:14:35.446Z,22.78
2023-04-27T17:17:07.837Z,22.38
2023-04-27T17:19:36.895Z,22.18
2023-04-27T17:22:05.147Z,21.95
2023-04-27T17:24:33.484Z,21.75
2023-04-27T17:27:04.288Z,21.19
2023-04-27T17:29:37.258Z,20.82
2023-04-27T17:32:07.160Z,20.69
2023-04-27T17:37:09.574Z,20.38
2023-04-27T17:39:39.511Z,20.23
2023-04-27T17:42:12.235Z,20.12
2023-04-27T17:44:42.597Z,19.98
2023-04-27T17:47:15.006Z,19.85
2023-04-27T17:49:43.290Z,19.65
2023-04-27T17:52:12.952Z,19.46
2023-04-27T17:54:45.603Z,19.33
2023-04-27T17:57:18.912Z,19.10
2023-04-27T17:59:47.392Z,18.92
2023-04-27T18:02:16.853Z,18.80
2023-04-27T18:04:45.036Z,18.68
2023-04-27T18:07:13.133Z,18.55
2023-04-27T18:09:41.508Z,18.44
2023-04-27T18:12:13.193Z,18.31
2023-04-27T18:14:41.750Z,18.17
2023-04-27T18:17:11.200Z,18.03
2023-04-27T18:19:43.700Z,17.93
2023-04-27T18:22:12.821Z,17.81
2023-04-27T18:24:45.744Z,17.72
2023-04-27T18:27:16.548Z,17.65
2023-04-27T18:29:47.384Z,17.53
2023-04-27T18:32:16.467Z,17.48
2023-04-27T18:34:46.803Z,17.36
2023-04-27T18:37:17.491Z,17.28
2023-04-27T18:39:48.400Z,17.18
2023-04-27T18:42:18.410Z,17.11
2023-04-27T18:44:48.438Z,17.01
2023-04-27T18:47:17.616Z,16.93
2023-04-27T18:49:47.056Z,16.85
2023-04-27T18:52:15.158Z,16.80
2023-04-27T18:54:44.642Z,16.75
2023-04-27T18:57:12.895Z,16.71
2023-04-27T18:59:41.690Z,16.64
2023-04-27T19:02:10.034Z,16.54
2023-04-27T19:04:42.987Z,16.42
2023-04-27T19:07:19.029Z,16.36
2023-04-27T19:09:49.761Z,16.33
2023-04-27T19:12:18.468Z,16.23
2023-04-27T19:14:46.827Z,16.17
2023-04-27T19:17:14.741Z,16.10
2023-04-27T19:19:50.038Z,16.04
2023-04-27T19:22:19.848Z,15.96
2023-04-27T19:24:49.193Z,15.89
2023-04-27T19:27:17.501Z,15.83
2023-04-27T19:29:51.256Z,15.77
2023-04-27T19:32:20.676Z,15.66
2023-04-27T19:34:50.180Z,15.59
2023-04-27T19:37:22.144Z,15.51
2023-04-27T19:39:53.733Z,15.48
2023-04-27T19:42:26.315Z,15.42
2023-04-27T19:44:55.728Z,15.39
2023-04-27T19:47:24.256Z,15.34
2023-04-27T19:49:53.003Z,15.30
2023-04-27T19:52:22.638Z,15.25
2023-04-27T19:54:53.203Z,15.19
2023-04-27T19:57:22.890Z,15.11
2023-04-27T19:59:51.175Z,15.08
2023-04-27T20:02:19.461Z,15.04
2023-04-27T20:04:48.335Z,14.98
2023-04-27T20:07:18.356Z,14.94
2023-04-27T20:09:51.881Z,14.88
2023-04-27T20:12:40.726Z,14.82
2023-04-27T20:15:12.541Z,14.82
2023-04-27T20:17:44.606Z,14.79
2023-04-27T20:20:13.915Z,14.78
2023-04-27T20:22:42.302Z,14.75
2023-04-27T20:25:16.245Z,14.73
2023-04-27T20:27:44.268Z,14.73
2023-04-27T20:30:12.958Z,14.71
2023-04-27T20:32:44.306Z,14.68
2023-04-27T20:35:12.815Z,14.65
2023-04-27T20:37:43.553Z,14.61
2023-04-27T20:40:17.344Z,14.56
2023-04-27T20:42:49.937Z,14.49
2023-04-27T20:45:21.338Z,14.44
2023-04-27T20:47:50.547Z,14.39
2023-04-27T20:50:18.816Z,14.36
2023-04-27T20:52:47.761Z,14.31
2023-04-27T20:55:15.759Z,14.29
2023-04-27T20:57:47.686Z,14.26
2023-04-27T21:00:17.967Z,14.24
2023-04-27T21:02:48.136Z,14.21
2023-04-27T21:05:19.242Z,14.20
2023-04-27T21:07:47.498Z,14.17
2023-04-27T21:10:18.743Z,14.15
2023-04-27T21:12:49.567Z,14.11
2023-04-27T21:15:20.410Z,14.08
2023-04-27T21:17:48.307Z,14.02
2023-04-27T21:20:16.306Z,14.00
2023-04-27T21:22:44.617Z,13.94
2023-04-27T21:25:12.598Z,13.92
2023-04-27T21:27:40.979Z,13.91
2023-04-27T21:30:16.904Z,13.87
2023-04-27T21:32:46.087Z,13.85
2023-04-27T21:35:14.445Z,13.88
2023-04-27T21:37:42.983Z,13.86
2023-04-27T21:40:12.048Z,13.81
2023-04-27T21:42:40.738Z,13.79
2023-04-27T21:45:11.837Z,13.79
2023-04-27T21:47:40.749Z,13.79
2023-04-27T21:50:10.290Z,13.81
2023-04-27T21:52:38.594Z,13.78
2023-04-27T21:55:07.503Z,13.77
2023-04-27T21:57:36.795Z,13.76
2023-04-27T22:00:13.524Z,13.73
2023-04-27T22:02:51.607Z,13.72
2023-04-27T22:05:21.021Z,13.69
2023-04-27T22:07:49.302Z,13.67
2023-04-27T22:10:17.350Z,13.61
2023-04-27T22:12:46.911Z,13.61
2023-04-27T22:15:15.129Z,13.60
2023-04-27T22:17:44.311Z,13.59
2023-04-27T22:20:14.659Z,13.55
2023-04-27T22:22:42.673Z,13.51
2023-04-27T22:25:12.319Z,13.52
2023-04-27T22:27:45.266Z,13.50
2023-04-27T22:30:15.608Z,13.48
2023-04-27T22:32:45.216Z,13.50
2023-04-27T22:35:25.442Z,13.47
2023-04-27T22:37:57.052Z,13.47
2023-04-27T22:40:25.368Z,13.46
2023-04-27T22:42:56.219Z,13.46
2023-04-27T22:45:27.442Z,13.44
2023-04-27T22:47:57.011Z,13.43
2023-04-27T22:50:26.789Z,13.40
2023-04-27T22:52:55.121Z,13.38
2023-04-27T22:55:23.489Z,13.39
2023-04-27T22:57:53.872Z,13.36
2023-04-27T23:00:22.720Z,13.36
2023-04-27T23:02:51.065Z,13.36
2023-04-27T23:05:20.558Z,13.37
2023-04-27T23:07:52.758Z,13.37
2023-04-27T23:10:21.418Z,13.37
2023-04-27T23:12:50.713Z,13.38
2023-04-27T23:15:24.280Z,13.35
2023-04-27T23:17:55.860Z,13.35
2023-04-27T23:20:28.880Z,13.32
2023-04-27T23:22:59.094Z,13.32
2023-04-27T23:25:28.406Z,13.27
2023-04-27T23:27:56.734Z,13.26
2023-04-27T23:30:25.071Z,13.27
2023-04-27T23:32:54.991Z,13.24
2023-04-27T23:35:25.783Z,13.24
2023-04-27T23:37:58.224Z,13.23
2023-04-27T23:40:26.310Z,13.21
2023-04-27T23:42:55.881Z,13.21
2023-04-27T23:45:27.049Z,13.21
2023-04-27T23:47:57.193Z,13.19
2023-04-27T23:50:27.269Z,13.14
2023-04-27T23:52:56.036Z,13.11
2023-04-27T23:55:26.364Z,13.12
2023-04-27T23:57:56.233Z,13.13
